Creek Data

    Home     View Charts     View Raw Data     Messages

ID Distance Battery Voltage Battery Current Internal Temp Internal Humidity External Temp Solar Input rssi snr Time Stamp Record
35833 15.1 4.01 -5 66 49 65 0.1 -80 6 03/23/2025 07:45 PM 17604
35832 15.1 4.01 -5 68 50 66 0.7 -80 9 03/23/2025 07:30 PM 17603
35831 15.2 4.00 -10 74 49 68 4.3 -80 9 03/23/2025 07:15 PM 17602
35830 15.2 4.07 0 79 47 74 4.5 -81 8 03/23/2025 07:00 PM 17601
35829 15.2 4.03 5 81 46 74 4.5 -81 7 03/23/2025 06:45 PM 17600
35828 15.2 4.06 13 84 46 75 4.5 -81 8 03/23/2025 06:30 PM 17599
35827 15.3 4.10 11 87 44 75 4.5 -82 7 03/23/2025 06:15 PM 17598
35826 0.0 4.11 48 88 43 77 4.5 -82 8 03/23/2025 06:00 PM 17597
35825 0.0 4.05 0 89 43 79 5.1 -83 8 03/23/2025 05:45 PM 17596
35824 0.0 4.05 0 90 42 77 5.1 -83 8 03/23/2025 05:30 PM 17595
35823 0.0 4.05 0 91 41 77 5.1 -84 8 03/23/2025 05:15 PM 17594
35822 0.0 4.11 0 92 40 77 5.1 -83 8 03/23/2025 05:01 PM 17593
35821 0.0 4.05 0 91 40 77 5.1 -84 8 03/23/2025 04:45 PM 17592
35820 0.0 4.15 0 91 39 77 5.1 -84 8 03/23/2025 04:30 PM 17591
35819 0.0 4.15 0 90 39 75 5.1 -82 8 03/23/2025 04:15 PM 17590
35818 0.0 4.05 0 89 39 75 5.1 -83 8 03/23/2025 04:00 PM 17589
35817 0.0 4.12 0 89 38 75 5.1 -83 8 03/23/2025 03:45 PM 17588
35816 0.0 4.05 0 91 36 73 5.1 -82 8 03/23/2025 03:30 PM 17587
35815 15.4 4.05 0 89 36 75 5.1 -83 8 03/23/2025 03:15 PM 17586
35814 0.0 4.05 0 86 37 73 5.1 -83 8 03/23/2025 03:00 PM 17585
35813 0.0 4.05 0 85 36 72 5.1 -84 8 03/23/2025 02:45 PM 17584
35812 15.3 4.15 0 82 37 71 5.1 -83 8 03/23/2025 02:30 PM 17583
35811 0.0 4.05 0 81 37 69 5.1 -83 9 03/23/2025 02:15 PM 17582
35810 0.0 4.06 0 82 36 69 5.1 -83 8 03/23/2025 02:00 PM 17581
35809 0.0 4.05 0 81 36 70 5.1 -83 8 03/23/2025 01:46 PM 17580